Time;durP1;ratioP1;P1;durP2;ratioP2;P2;SDS_P1;SDS_P2;PMS_P1;PMS_P2;Temp;Humidity;BMP_temperature;BMP_pressure;BME280_temperature;BME280_humidity;BME280_pressure;Samples;Min_cycle;Max_cycle;Signal;HPM_P1;HPM_P2
2023/02/11 00:01:30;;;;;;;18.63;10.47;;;;;;;8.27;81.52;102791.56;6257717;28;20253;-69
2023/02/11 00:04:51;;;;;;;16.97;9.77;;;;;;;8.46;79.76;102781.66;6252661;28;20232;-69
2023/02/11 00:08:15;;;;;;;17.90;10.37;;;;;;;7.76;83.79;102787.69;6241806;28;20227;-70
2023/02/11 00:11:36;;;;;;;19.23;11.30;;;;;;;7.87;85.35;102790.75;6253366;28;20224;-69
2023/02/11 00:14:57;;;;;;;18.30;11.73;;;;;;;8.19;83.28;102778.47;6247774;28;20228;-69
2023/02/11 00:18:19;;;;;;;14.73;10.73;;;;;;;8.13;83.30;102769.84;6250329;28;20232;-70
2023/02/11 00:21:40;;;;;;;19.30;10.27;;;;;;;8.03;83.24;102783.69;6247713;28;20224;-70
2023/02/11 00:25:01;;;;;;;17.77;12.07;;;;;;;8.19;83.18;102770.41;6247082;28;20735;-69
2023/02/11 00:28:22;;;;;;;14.30;9.60;;;;;;;8.05;83.40;102778.28;6247392;28;20245;-69
2023/02/11 00:31:43;;;;;;;21.73;10.03;;;;;;;8.05;83.52;102787.19;6247661;28;20233;-68
2023/02/11 00:35:06;;;;;;;16.53;11.20;;;;;;;8.24;83.41;102771.03;6256269;28;20319;-68
2023/02/11 00:38:27;;;;;;;26.27;10.97;;;;;;;8.45;82.35;102766.50;6248437;28;20227;-69
2023/02/11 00:41:47;;;;;;;19.17;12.30;;;;;;;8.23;83.32;102772.00;6251158;28;20236;-69
2023/02/11 00:45:09;;;;;;;21.70;11.23;;;;;;;8.59;82.47;102763.97;6251751;28;20259;-68
2023/02/11 00:48:30;;;;;;;31.87;10.50;;;;;;;8.30;85.17;102783.34;6258484;28;20235;-69
2023/02/11 00:51:56;;;;;;;22.77;12.43;;;;;;;8.05;86.33;102783.66;6245457;28;20322;-69
2023/02/11 00:55:17;;;;;;;21.87;13.93;;;;;;;8.07;87.95;102777.22;6240404;28;20311;-69
2023/02/11 00:58:38;;;;;;;25.13;11.90;;;;;;;8.44;86.52;102762.03;6247651;28;20235;-68
2023/02/11 01:01:59;;;;;;;14.50;10.80;;;;;;;7.99;88.59;102757.06;6253040;28;20232;-69
2023/02/11 01:05:20;;;;;;;28.27;13.57;;;;;;;8.04;88.29;102739.78;6247474;28;20257;-69
2023/02/11 01:08:43;;;;;;;19.27;11.30;;;;;;;7.99;90.73;102740.94;6242798;28;20233;-68
2023/02/11 01:12:04;;;;;;;19.27;11.10;;;;;;;7.63;91.00;102742.72;6252603;28;20548;-69
2023/02/11 01:15:26;;;;;;;14.80;10.00;;;;;;;8.28;88.79;102736.88;6241938;28;20240;-69
2023/02/11 01:18:47;;;;;;;19.07;12.30;;;;;;;8.35;88.76;102730.25;6245321;28;20235;-69
2023/02/11 01:22:11;;;;;;;13.80;10.33;;;;;;;8.15;89.26;102727.66;6239399;28;20232;-69
2023/02/11 01:25:33;;;;;;;14.67;12.03;;;;;;;8.08;89.79;102730.63;6245791;28;20546;-69
2023/02/11 01:28:54;;;;;;;14.27;12.53;;;;;;;8.23;88.96;102718.28;6250786;28;20235;-68
2023/02/11 01:32:15;;;;;;;16.77;10.83;;;;;;;8.08;89.86;102727.97;6248018;28;20935;-69
2023/02/11 01:35:38;;;;;;;16.80;11.47;;;;;;;8.14;90.14;102721.41;6251149;28;20232;-68
2023/02/11 01:38:59;;;;;;;16.87;10.57;;;;;;;8.34;90.12;102723.16;6235510;28;20236;-69
2023/02/11 01:42:23;;;;;;;14.10;10.23;;;;;;;8.29;90.38;102719.81;6245762;28;20311;-69
2023/02/11 01:45:59;;;;;;;34.57;12.93;;;;;;;8.29;90.20;102711.75;6245991;28;20225;-68
2023/02/11 01:49:25;;;;;;;15.83;10.33;;;;;;;8.33;89.40;102710.66;6247696;28;20266;-69
2023/02/11 01:52:46;;;;;;;15.83;11.13;;;;;;;8.12;90.44;102703.63;6238483;28;20546;-68
2023/02/11 02:00:08;;;;;;;16.30;11.10;;;;;;;8.15;92.30;102692.72;6125604;28;20242;-68
2023/02/11 02:03:39;;;;;;;15.93;11.27;;;;;;;8.15;92.11;102690.03;6240559;28;20306;-69
2023/02/11 02:07:06;;;;;;;27.10;12.27;;;;;;;8.47;91.97;102692.03;6242118;28;20267;-68
2023/02/11 02:10:29;;;;;;;20.50;13.87;;;;;;;8.63;90.34;102691.16;6202511;28;20227;-69
2023/02/11 02:13:50;;;;;;;15.23;10.83;;;;;;;8.32;92.30;102695.50;6239464;28;20278;-71
2023/02/11 02:17:29;;;;;;;14.73;9.73;;;;;;;8.42;92.19;102680.63;6240154;28;20551;-68
2023/02/11 02:21:28;;;;;;;20.87;9.53;;;;;;;8.22;91.80;102667.31;6258993;28;20335;-69
2023/02/11 02:25:04;;;;;;;15.73;9.97;;;;;;;8.27;92.37;102671.53;6254604;28;20243;-68
2023/02/11 02:28:45;;;;;;;18.83;8.97;;;;;;;8.25;92.08;102673.44;6240950;28;20601;-69
2023/02/11 02:32:30;;;;;;;19.53;12.03;;;;;;;8.48;91.33;102662.38;6244706;28;20665;-69
2023/02/11 02:36:02;;;;;;;16.87;8.70;;;;;;;8.38;91.17;102660.25;6240617;28;20462;-69
2023/02/11 02:39:27;;;;;;;19.87;11.10;;;;;;;8.19;92.43;102662.97;6249110;28;20227;-69
2023/02/11 02:42:50;;;;;;;15.13;10.33;;;;;;;8.45;90.98;102659.00;6246937;28;20236;-69
2023/02/11 02:46:16;;;;;;;26.60;13.03;;;;;;;8.33;92.14;102655.09;6244214;28;20314;-68
2023/02/11 02:49:38;;;;;;;27.13;12.27;;;;;;;8.65;90.87;102648.94;6248622;28;20231;-69
2023/02/11 02:53:12;;;;;;;16.87;10.30;;;;;;;8.69;90.81;102649.63;6236208;28;20236;-69
2023/02/11 02:56:42;;;;;;;21.97;10.80;;;;;;;8.75;90.22;102663.63;6270455;28;20231;-68
2023/02/11 03:00:23;;;;;;;16.03;10.03;;;;;;;8.44;92.52;102668.88;6240440;28;20239;-69
2023/02/11 03:03:50;;;;;;;14.90;9.33;;;;;;;8.84;90.37;102657.75;6246437;28;20227;-69
2023/02/11 03:07:21;;;;;;;16.43;9.57;;;;;;;8.30;92.21;102671.41;6246512;28;20232;-68
2023/02/11 03:10:45;;;;;;;21.47;9.17;;;;;;;8.40;93.61;102669.09;6252590;28;20232;-69
2023/02/11 03:14:09;;;;;;;19.93;9.53;;;;;;;8.53;93.02;102659.47;6253721;28;20513;-68
2023/02/11 03:17:34;;;;;;;12.00;8.73;;;;;;;8.55;92.29;102666.47;6244368;28;20518;-69
2023/02/11 03:20:56;;;;;;;17.33;10.83;;;;;;;8.45;93.36;102654.47;6264992;28;20330;-68
2023/02/11 03:24:21;;;;;;;13.30;10.37;;;;;;;8.97;91.89;102655.28;6261043;28;20230;-69
2023/02/11 03:27:49;;;;;;;11.43;10.23;;;;;;;8.70;92.33;102645.97;6244321;28;20606;-69
2023/02/11 03:31:16;;;;;;;17.83;9.93;;;;;;;8.53;93.21;102648.72;6252650;28;20227;-70
2023/02/11 03:34:42;;;;;;;11.53;8.30;;;;;;;8.54;93.73;102639.69;6253983;28;20228;-69
2023/02/11 03:38:07;;;;;;;11.07;8.73;;;;;;;8.54;94.26;102627.13;6246799;28;20317;-69
2023/02/11 03:41:31;;;;;;;21.67;9.57;;;;;;;8.61;93.17;102624.97;6254113;28;20627;-68
2023/02/11 03:44:57;;;;;;;14.03;9.07;;;;;;;8.64;93.81;102627.50;6257424;28;20533;-68
2023/02/11 03:48:22;;;;;;;19.40;10.17;;;;;;;8.72;93.01;102625.25;6238518;28;20239;-69
2023/02/11 03:51:43;;;;;;;16.73;9.53;;;;;;;8.70;92.67;102621.78;6250932;28;20234;-68
2023/02/11 03:55:09;;;;;;;12.37;8.07;;;;;;;8.87;91.53;102619.06;6245198;28;20236;-69
2023/02/11 03:58:31;;;;;;;14.67;7.50;;;;;;;8.81;91.81;102609.53;6246997;28;20234;-69
2023/02/11 04:01:53;;;;;;;18.63;11.17;;;;;;;8.98;90.84;102607.75;6254313;28;20244;-68
2023/02/11 04:05:15;;;;;;;10.60;6.57;;;;;;;8.80;91.79;102606.94;6259400;28;20236;-69
2023/02/11 04:08:36;;;;;;;16.40;6.67;;;;;;;8.78;91.25;102598.91;6249334;28;20224;-69
2023/02/11 04:11:57;;;;;;;12.03;8.17;;;;;;;8.99;90.69;102613.03;6255082;28;20229;-69
2023/02/11 04:15:19;;;;;;;10.20;7.80;;;;;;;9.12;90.04;102614.09;6256030;28;20235;-69
2023/02/11 04:18:40;;;;;;;26.67;8.80;;;;;;;9.01;90.35;102623.72;6251008;28;20227;-69
2023/02/11 04:22:02;;;;;;;17.50;8.40;;;;;;;9.12;89.75;102623.97;6261379;28;20294;-69
2023/02/11 04:25:22;;;;;;;25.60;8.73;;;;;;;9.12;89.63;102632.06;6260325;28;20232;-69
2023/02/11 04:28:43;;;;;;;15.03;8.67;;;;;;;9.26;88.47;102633.03;6238154;28;20648;-69
2023/02/11 04:32:05;;;;;;;13.63;6.53;;;;;;;9.67;86.87;102622.66;6249355;28;20233;-69
2023/02/11 04:35:26;;;;;;;12.77;6.90;;;;;;;9.47;87.40;102631.84;6246682;28;20220;-70
2023/02/11 04:38:47;;;;;;;11.80;6.40;;;;;;;9.22;88.80;102634.16;6240085;28;20457;-69
2023/02/11 04:42:08;;;;;;;9.90;6.10;;;;;;;9.76;87.34;102634.72;6251333;28;20795;-69
2023/02/11 04:45:29;;;;;;;11.03;6.27;;;;;;;9.19;89.03;102631.66;6244702;28;20232;-68
2023/02/11 04:48:51;;;;;;;9.77;7.23;;;;;;;9.37;88.86;102636.00;6242464;28;20605;-69
2023/02/11 04:52:12;;;;;;;15.20;7.67;;;;;;;9.70;87.31;102635.09;6245489;28;20232;-69
2023/02/11 04:55:33;;;;;;;9.63;5.97;;;;;;;9.43;88.06;102634.78;6239407;28;20232;-69
2023/02/11 04:58:53;;;;;;;18.53;8.47;;;;;;;9.34;88.65;102633.50;6254958;28;20239;-68
2023/02/11 05:02:14;;;;;;;9.27;4.63;;;;;;;9.38;88.63;102635.06;6244395;28;20232;-68
2023/02/11 05:05:38;;;;;;;9.07;5.50;;;;;;;9.56;88.01;102642.09;6246019;28;20228;-69
2023/02/11 05:08:59;;;;;;;11.97;5.83;;;;;;;9.78;87.45;102648.97;6249011;28;20224;-68
2023/02/11 05:12:20;;;;;;;8.10;5.60;;;;;;;9.29;90.11;102662.47;6246394;28;20224;-69
2023/02/11 05:15:41;;;;;;;11.73;6.00;;;;;;;9.59;88.97;102655.41;6246565;28;20224;-69
2023/02/11 05:19:02;;;;;;;12.50;8.70;;;;;;;9.49;89.56;102653.31;6246382;28;20236;-69
2023/02/11 05:22:25;;;;;;;11.50;6.40;;;;;;;9.29;91.29;102653.53;6253712;28;20224;-69
2023/02/11 05:25:45;;;;;;;15.40;6.93;;;;;;;9.15;92.17;102648.03;6253862;28;20232;-69
2023/02/11 05:29:06;;;;;;;12.17;5.87;;;;;;;9.33;91.42;102637.13;6246400;28;20231;-70
2023/02/11 05:32:27;;;;;;;8.77;6.40;;;;;;;9.52;90.67;102637.84;6245323;28;20933;-69
2023/02/11 05:35:48;;;;;;;9.90;7.50;;;;;;;9.18;92.16;102624.53;6254616;28;20618;-69
2023/02/11 05:39:10;;;;;;;13.07;6.77;;;;;;;9.04;93.64;102621.72;6242159;28;20235;-69
2023/02/11 05:42:30;;;;;;;12.13;6.73;;;;;;;9.74;91.66;102629.44;6249866;28;20539;-69
2023/02/11 05:45:51;;;;;;;12.03;6.40;;;;;;;9.36;92.47;102622.66;6260682;28;20236;-70
2023/02/11 05:49:12;;;;;;;10.97;7.93;;;;;;;9.39;92.34;102601.81;6252979;28;20252;-69
2023/02/11 05:52:33;;;;;;;8.93;5.80;;;;;;;9.23;93.39;102591.97;6242825;28;20276;-69
2023/02/11 05:55:56;;;;;;;11.17;6.37;;;;;;;9.21;93.95;102600.16;6253166;28;20244;-69
2023/02/11 05:59:17;;;;;;;8.10;4.77;;;;;;;9.29;93.29;102605.97;6242147;28;20232;-69
2023/02/11 06:02:37;;;;;;;6.37;5.77;;;;;;;9.41;92.25;102601.72;6227007;28;20240;-70
2023/02/11 06:05:58;;;;;;;15.37;6.60;;;;;;;9.57;92.58;102614.22;6264205;28;20224;-68
2023/02/11 06:09:19;;;;;;;7.50;4.73;;;;;;;9.26;93.37;102614.19;6247626;28;20738;-69
2023/02/11 06:12:42;;;;;;;6.93;4.70;;;;;;;9.68;91.90;102611.78;6243610;28;20223;-70
2023/02/11 06:16:03;;;;;;;7.10;6.27;;;;;;;9.29;93.47;102605.09;6252405;28;20343;-70
2023/02/11 06:19:24;;;;;;;7.27;4.60;;;;;;;9.60;92.67;102591.63;6237573;28;20590;-69
2023/02/11 06:22:45;;;;;;;19.77;5.77;;;;;;;9.52;92.81;102581.31;6239816;28;20240;-69
2023/02/11 06:26:07;;;;;;;7.87;5.93;;;;;;;9.52;93.19;102580.44;6257485;28;20264;-70
2023/02/11 06:29:29;;;;;;;5.87;4.87;;;;;;;9.45;92.99;102573.69;6238797;28;20224;-69
2023/02/11 06:32:50;;;;;;;6.30;4.40;;;;;;;9.73;92.52;102605.25;6238609;28;20235;-69
2023/02/11 06:36:14;;;;;;;12.97;5.03;;;;;;;9.83;91.46;102626.19;6261646;28;20229;-68
2023/02/11 06:39:34;;;;;;;7.20;5.37;;;;;;;10.16;89.87;102639.56;6253176;28;20695;-68
2023/02/11 06:42:55;;;;;;;5.20;4.50;;;;;;;10.04;89.55;102626.78;6231655;28;20480;-68
2023/02/11 06:46:17;;;;;;;8.87;5.07;;;;;;;10.10;89.47;102639.88;6241409;28;21704;-69
2023/02/11 06:49:38;;;;;;;6.73;4.73;;;;;;;9.94;90.09;102633.66;6240579;28;20233;-70
2023/02/11 06:52:59;;;;;;;5.70;5.07;;;;;;;10.05;89.66;102644.69;6236406;28;20426;-69
2023/02/11 06:56:22;;;;;;;5.60;5.07;;;;;;;9.81;91.65;102651.47;6266441;28;20228;-69
2023/02/11 06:59:43;;;;;;;5.87;5.27;;;;;;;9.93;91.34;102650.78;6257378;28;20228;-69
2023/02/11 07:03:05;;;;;;;9.10;4.17;;;;;;;9.49;92.53;102666.78;6227596;28;20576;-69
2023/02/11 07:06:27;;;;;;;9.10;5.53;;;;;;;9.80;93.20;102650.63;6247459;28;20219;-68
2023/02/11 07:09:48;;;;;;;6.77;5.17;;;;;;;9.92;92.25;102658.00;6245793;28;20235;-69
2023/02/11 07:13:09;;;;;;;9.57;5.00;;;;;;;10.22;91.21;102668.88;6240809;28;20315;-69
2023/02/11 07:16:31;;;;;;;6.30;5.30;;;;;;;10.13;91.16;102667.56;6250599;28;20317;-68
2023/02/11 07:19:53;;;;;;;6.90;4.47;;;;;;;10.12;91.27;102664.94;6242281;28;20330;-68
2023/02/11 07:23:14;;;;;;;5.70;5.20;;;;;;;9.88;92.71;102667.22;6244015;28;20244;-69
2023/02/11 07:26:36;;;;;;;5.93;5.23;;;;;;;9.86;93.43;102661.06;6247492;28;20236;-69
2023/02/11 07:29:57;;;;;;;10.40;5.80;;;;;;;9.48;94.52;102668.59;6245393;28;20629;-69
2023/02/11 07:33:18;;;;;;;5.17;3.83;;;;;;;9.79;93.86;102666.84;6229269;28;20606;-69
2023/02/11 07:36:42;;;;;;;5.97;4.30;;;;;;;9.80;94.27;102664.09;6252937;28;20281;-70
2023/02/11 07:40:04;;;;;;;9.63;5.67;;;;;;;9.61;94.08;102656.19;6252162;28;20785;-70
2023/02/11 07:43:24;;;;;;;6.20;4.13;;;;;;;9.87;93.30;102664.59;6245522;28;20236;-69
2023/02/11 07:46:47;;;;;;;7.73;5.37;;;;;;;9.63;95.13;102669.56;6249077;28;20319;-69
2023/02/11 07:50:08;;;;;;;5.80;5.27;;;;;;;9.81;94.48;102655.03;6250507;28;20231;-69
2023/02/11 07:53:31;;;;;;;8.17;4.63;;;;;;;10.07;92.82;102680.50;6243421;28;20227;-68
2023/02/11 07:56:52;;;;;;;5.53;4.73;;;;;;;9.90;93.85;102704.84;6255479;28;20228;-68
2023/02/11 08:00:14;;;;;;;9.13;5.47;;;;;;;10.06;92.74;102700.31;6262059;28;20228;-69
2023/02/11 08:03:36;;;;;;;10.80;5.57;;;;;;;9.92;93.44;102711.00;6243172;28;20239;-68
2023/02/11 08:06:57;;;;;;;5.50;5.00;;;;;;;9.77;94.18;102706.47;6251141;28;20227;-69
2023/02/11 08:10:20;;;;;;;7.10;5.87;;;;;;;9.98;93.38;102707.97;6261226;28;20232;-70
2023/02/11 08:13:42;;;;;;;6.13;4.83;;;;;;;10.29;92.16;102706.13;6251111;28;20590;-70
2023/02/11 08:17:03;;;;;;;5.70;5.17;;;;;;;10.20;92.44;102708.50;6251075;28;20228;-69
2023/02/11 08:20:24;;;;;;;10.27;6.17;;;;;;;10.22;92.78;102703.91;6255432;28;20220;-70
2023/02/11 08:23:46;;;;;;;8.13;7.00;;;;;;;10.24;91.99;102710.06;6250969;28;20239;-69
2023/02/11 08:27:08;;;;;;;8.17;6.80;;;;;;;10.00;94.12;102711.44;6247766;28;20546;-69
2023/02/11 08:30:29;;;;;;;10.93;7.53;;;;;;;10.35;92.07;102727.34;6232851;28;20228;-69
2023/02/11 08:33:50;;;;;;;10.07;6.83;;;;;;;10.47;91.69;102735.69;6246749;28;20220;-69
2023/02/11 08:37:11;;;;;;;11.10;7.37;;;;;;;10.49;91.11;102739.16;6256569;28;20614;-69
2023/02/11 08:40:32;;;;;;;11.57;7.30;;;;;;;10.57;90.65;102737.75;6249308;28;20825;-70
2023/02/11 08:43:54;;;;;;;9.33;7.27;;;;;;;10.27;91.90;102747.63;6251196;28;20346;-69
2023/02/11 08:47:15;;;;;;;11.87;7.63;;;;;;;10.40;91.07;102746.84;6242289;28;20228;-69
2023/02/11 08:50:38;;;;;;;10.27;8.37;;;;;;;10.32;92.56;102750.94;6252519;28;20235;-69
2023/02/11 08:54:00;;;;;;;8.20;5.90;;;;;;;10.40;91.96;102754.91;6250012;28;20245;-70
2023/02/11 08:57:21;;;;;;;7.50;6.40;;;;;;;10.37;92.16;102755.09;6243372;28;20236;-68
2023/02/11 09:00:44;;;;;;;8.30;6.67;;;;;;;10.38;91.59;102756.84;6243947;28;20236;-70
2023/02/11 09:04:05;;;;;;;7.17;5.47;;;;;;;10.28;92.23;102754.75;6246613;28;20270;-69
2023/02/11 09:07:25;;;;;;;11.20;6.67;;;;;;;10.25;92.49;102766.56;6245276;28;20224;-69
2023/02/11 09:10:47;;;;;;;14.10;6.77;;;;;;;10.33;92.17;102767.00;6252278;28;20223;-69
2023/02/11 09:14:08;;;;;;;6.63;5.47;;;;;;;10.32;92.03;102759.00;6264497;28;20419;-68
2023/02/11 09:17:30;;;;;;;7.03;5.40;;;;;;;10.43;91.64;102760.13;6240356;28;20236;-69
2023/02/11 09:20:50;;;;;;;6.43;5.40;;;;;;;10.54;91.66;102748.72;6251574;28;20227;-70
2023/02/11 09:24:12;;;;;;;6.50;3.77;;;;;;;10.62;91.62;102751.81;6244426;28;20340;-69
2023/02/11 09:27:33;;;;;;;9.63;6.40;;;;;;;10.79;90.83;102765.19;6237476;28;20609;-68
2023/02/11 09:30:53;;;;;;;6.37;4.33;;;;;;;10.73;90.92;102770.06;6256513;28;20232;-69
2023/02/11 09:34:16;;;;;;;14.07;5.20;;;;;;;10.88;90.53;102788.06;6239451;28;20231;-68
2023/02/11 09:37:36;;;;;;;9.77;4.83;;;;;;;10.77;89.58;102793.19;6238333;28;20258;-69
2023/02/11 09:40:57;;;;;;;9.73;4.90;;;;;;;10.43;91.52;102776.28;6264672;28;20250;-69
2023/02/11 09:44:21;;;;;;;4.13;3.73;;;;;;;10.63;90.86;102771.56;6250127;28;20621;-69
2023/02/11 09:47:48;;;;;;;4.47;3.77;;;;;;;10.77;90.94;102790.50;6242559;28;20608;-69
2023/02/11 09:51:18;;;;;;;8.07;4.80;;;;;;;10.81;90.31;102771.34;6259162;28;20290;-69
2023/02/11 09:54:49;;;;;;;6.10;3.77;;;;;;;10.85;90.28;102783.69;6261530;28;20268;-69
2023/02/11 09:58:13;;;;;;;7.90;4.10;;;;;;;10.81;90.29;102782.16;6249929;28;20235;-69
2023/02/11 10:01:39;;;;;;;4.93;3.93;;;;;;;10.90;90.50;102781.59;6250739;28;20228;-69
2023/02/11 10:05:17;;;;;;;7.03;5.07;;;;;;;11.04;89.77;102792.44;6262450;28;20256;-70
2023/02/11 10:08:47;;;;;;;7.73;4.30;;;;;;;11.14;89.84;102787.34;6244842;28;20235;-70
2023/02/11 10:12:24;;;;;;;5.43;3.43;;;;;;;10.99;90.02;102797.22;6253521;28;20937;-69
2023/02/11 10:15:51;;;;;;;5.67;4.30;;;;;;;11.07;89.80;102808.47;6245681;28;20618;-69
2023/02/11 10:19:26;;;;;;;4.20;3.80;;;;;;;10.77;89.96;102804.00;6249059;28;20621;-70
2023/02/11 10:22:49;;;;;;;7.93;4.33;;;;;;;11.09;89.15;102814.63;6237775;28;20232;-69
2023/02/11 10:26:16;;;;;;;6.60;3.97;;;;;;;11.00;89.35;102804.38;6250520;28;20225;-69
2023/02/11 10:29:42;;;;;;;7.97;4.87;;;;;;;11.02;90.14;102804.28;6241866;28;20240;-69
2023/02/11 10:33:06;;;;;;;12.63;3.93;;;;;;;11.07;90.59;102815.69;6241192;28;20278;-69
2023/02/11 10:36:30;;;;;;;9.03;3.40;;;;;;;11.08;90.46;102817.41;6259893;28;20603;-70
2023/02/11 10:39:50;;;;;;;8.80;3.43;;;;;;;11.18;89.87;102821.31;6234588;28;20319;-71
2023/02/11 10:43:14;;;;;;;5.10;4.03;;;;;;;10.93;90.71;102804.84;6239163;28;20244;-69
2023/02/11 10:46:38;;;;;;;6.60;3.80;;;;;;;10.99;91.18;102802.63;6254973;28;20597;-70
2023/02/11 10:50:02;;;;;;;5.27;3.93;;;;;;;11.01;91.42;102805.25;6248794;28;20580;-69
2023/02/11 10:53:23;;;;;;;3.57;2.87;;;;;;;11.07;91.45;102804.88;6247288;28;20653;-69
2023/02/11 10:56:48;;;;;;;12.73;4.97;;;;;;;10.83;92.89;102806.31;6248666;28;20786;-70
2023/02/11 11:00:28;;;;;;;6.87;2.60;;;;;;;10.74;93.41;102802.38;6256378;28;20236;-69
2023/02/11 11:03:52;;;;;;;9.17;3.20;;;;;;;10.85;92.91;102805.28;6244036;28;20649;-70
2023/02/11 11:07:17;;;;;;;2.67;2.30;;;;;;;10.42;95.74;102798.84;6248893;28;21295;-70
2023/02/11 11:10:42;;;;;;;5.20;4.23;;;;;;;10.71;95.12;102793.56;6257549;28;20239;-70
2023/02/11 11:14:04;;;;;;;2.67;2.13;;;;;;;10.51;94.36;102788.47;6252279;28;21032;-69
2023/02/11 11:17:28;;;;;;;10.33;2.93;;;;;;;10.56;94.78;102781.84;6244756;28;20224;-69
2023/02/11 11:20:57;;;;;;;4.37;2.77;;;;;;;10.81;94.31;102792.06;6243845;28;20669;-69
2023/02/11 11:24:20;;;;;;;5.63;3.23;;;;;;;10.96;92.80;102819.03;6234737;28;20228;-68
2023/02/11 11:27:41;;;;;;;7.83;3.13;;;;;;;10.98;92.79;102821.63;6242226;28;20497;-69
2023/02/11 11:31:02;;;;;;;4.07;3.47;;;;;;;11.00;93.14;102815.16;6256273;28;20227;-69
2023/02/11 11:34:30;;;;;;;5.10;2.90;;;;;;;10.99;92.75;102813.41;6244376;28;20885;-68
2023/02/11 11:37:54;;;;;;;4.37;2.40;;;;;;;10.83;93.57;102804.50;6244687;28;20264;-68
2023/02/11 11:41:19;;;;;;;4.23;3.17;;;;;;;10.93;93.19;102813.78;6259480;28;20236;-70
2023/02/11 11:44:40;;;;;;;4.80;2.50;;;;;;;11.08;92.59;102823.69;6247349;28;20255;-68
2023/02/11 11:48:06;;;;;;;4.83;2.67;;;;;;;11.09;91.93;102821.84;6244721;28;20696;-70
2023/02/11 11:51:29;;;;;;;4.27;2.50;;;;;;;10.91;93.59;102829.19;6247960;28;20224;-69
2023/02/11 11:54:58;;;;;;;5.97;2.90;;;;;;;11.10;92.44;102837.06;6247530;28;20232;-68
2023/02/11 11:58:22;;;;;;;7.60;3.43;;;;;;;11.43;91.45;102832.34;6241176;28;20624;-70
2023/02/11 12:01:59;;;;;;;3.67;1.90;;;;;;;11.13;91.90;102839.59;6250878;28;20220;-69
2023/02/11 12:05:26;;;;;;;4.53;3.50;;;;;;;11.05;93.08;102836.50;6245400;28;20506;-70
2023/02/11 12:09:00;;;;;;;2.10;2.00;;;;;;;11.00;93.09;102836.75;6247088;28;20231;-69
2023/02/11 12:12:38;;;;;;;6.17;3.23;;;;;;;11.23;92.58;102835.38;6244087;28;20223;-70
2023/02/11 12:16:08;;;;;;;7.13;2.13;;;;;;;11.27;92.73;102848.63;6252168;28;20513;-69
2023/02/11 12:19:57;;;;;;;3.03;2.77;;;;;;;11.53;92.21;102857.84;6254779;28;20221;-70
2023/02/11 12:23:32;;;;;;;3.47;1.87;;;;;;;11.20;92.35;102849.94;6243196;28;20622;-69
2023/02/11 12:27:01;;;;;;;1.70;1.60;;;;;;;10.99;93.38;102845.81;6254964;28;20232;-69
2023/02/11 12:30:39;;;;;;;1.60;1.50;;;;;;;11.34;91.88;102845.53;6240785;28;20569;-70
2023/02/11 12:34:36;;;;;;;2.10;1.87;;;;;;;11.27;92.08;102854.00;6241216;28;20256;-70
2023/02/11 12:38:14;;;;;;;2.47;1.43;;;;;;;11.21;93.15;102838.19;6220766;28;20263;-70
2023/02/11 12:45:45;;;;;;;3.00;2.40;;;;;;;11.31;92.56;102864.59;6238417;28;20625;-69
2023/02/11 12:49:22;;;;;;;2.90;2.13;;;;;;;11.47;92.38;102854.66;6248349;28;20307;-70
2023/02/11 12:53:00;;;;;;;3.40;1.97;;;;;;;11.50;92.26;102858.03;6227077;28;20319;-70
2023/02/11 12:56:27;;;;;;;26.13;2.43;;;;;;;11.47;92.40;102844.72;6254139;28;20799;-70
2023/02/11 12:59:55;;;;;;;5.83;2.30;;;;;;;11.12;92.94;102843.25;6245713;28;20537;-69
2023/02/11 13:03:24;;;;;;;2.83;2.10;;;;;;;11.67;91.21;102830.88;6258357;28;20679;-70
2023/02/11 13:06:49;;;;;;;2.93;2.73;;;;;;;11.58;90.89;102830.53;6255832;28;20219;-69
2023/02/11 13:10:24;;;;;;;9.20;3.87;;;;;;;11.44;91.66;102836.78;6232132;28;20236;-69
2023/02/11 13:13:55;;;;;;;5.27;2.23;;;;;;;11.53;90.99;102827.25;6250855;28;20227;-70
2023/02/11 13:17:25;;;;;;;8.13;2.20;;;;;;;11.28;93.12;102834.13;6257852;28;20239;-70
2023/02/11 13:20:54;;;;;;;2.83;1.63;;;;;;;11.93;90.16;102840.06;6244850;28;20231;-70
2023/02/11 13:24:25;;;;;;;4.00;1.57;;;;;;;11.55;90.72;102836.13;6237501;28;20311;-69
2023/02/11 13:27:57;;;;;;;2.30;2.13;;;;;;;11.45;91.45;102843.06;6239460;28;20296;-70
2023/02/11 13:31:19;;;;;;;2.23;2.03;;;;;;;11.34;91.87;102838.31;6250448;28;20221;-70
2023/02/11 13:34:58;;;;;;;3.43;2.50;;;;;;;11.23;92.11;102838.97;6243452;28;20516;-69
2023/02/11 13:38:22;;;;;;;4.50;3.13;;;;;;;11.38;91.23;102844.38;6241827;28;20613;-70
2023/02/11 13:41:44;;;;;;;2.60;1.90;;;;;;;11.27;92.85;102862.13;6251364;28;20223;-71
2023/02/11 13:45:17;;;;;;;5.37;3.07;;;;;;;11.52;91.16;102855.22;6253007;28;20287;-69
2023/02/11 13:48:45;;;;;;;4.90;1.93;;;;;;;11.64;91.58;102851.78;6243421;28;20235;-70
2023/02/11 13:52:18;;;;;;;6.13;2.17;;;;;;;11.68;89.73;102845.25;6249110;28;20240;-69
2023/02/11 13:55:44;;;;;;;5.67;2.50;;;;;;;11.65;90.99;102837.28;6252338;28;20232;-70
2023/02/11 13:59:29;;;;;;;5.13;2.67;;;;;;;11.40;91.92;102856.84;6251422;28;20259;-70
2023/02/11 14:11:11;;;;;;;6.23;3.87;;;;;;;11.69;91.70;102860.50;6252050;28;20266;-70
2023/02/11 14:14:33;;;;;;;7.60;2.63;;;;;;;11.74;91.44;102880.88;6241564;28;20224;-70
2023/02/11 14:17:54;;;;;;;5.97;2.80;;;;;;;11.85;90.37;102877.47;6236429;28;20458;-70
2023/02/11 14:21:18;;;;;;;7.70;3.10;;;;;;;11.87;91.95;102884.53;6255753;28;20235;-70
2023/02/11 14:24:49;;;;;;;9.30;2.07;;;;;;;11.53;91.84;102900.19;6242709;28;20627;-71
2023/02/11 14:28:21;;;;;;;7.30;2.97;;;;;;;11.89;90.82;102897.97;6241569;28;20315;-69
2023/02/11 14:31:48;;;;;;;4.43;2.33;;;;;;;11.72;91.36;102908.94;6243516;28;20228;-71
2023/02/11 14:35:17;;;;;;;3.83;2.70;;;;;;;11.69;91.45;102919.94;6236376;28;20782;-70
2023/02/11 14:38:48;;;;;;;2.83;2.47;;;;;;;11.64;91.35;102922.03;6228116;28;20239;-69
2023/02/11 14:42:17;;;;;;;5.60;3.70;;;;;;;11.79;91.47;102929.22;6251221;28;20231;-70
2023/02/11 14:45:39;;;;;;;6.73;2.57;;;;;;;11.86;91.60;102927.88;6251716;28;20307;-69
2023/02/11 14:49:03;;;;;;;4.00;1.80;;;;;;;11.77;91.71;102926.59;6244870;28;20594;-70
2023/02/11 14:52:29;;;;;;;7.03;2.23;;;;;;;11.97;90.69;102933.50;6247035;28;20228;-70
2023/02/11 14:55:51;;;;;;;4.33;2.50;;;;;;;12.13;89.77;102944.22;6248803;28;20227;-70
2023/02/11 14:59:19;;;;;;;6.20;1.87;;;;;;;11.98;90.60;102964.97;6236866;28;20240;-70
2023/02/11 15:02:43;;;;;;;1.67;1.57;;;;;;;12.10;90.52;102964.19;6235748;28;20681;-70
2023/02/11 15:06:07;;;;;;;2.80;1.40;;;;;;;12.17;89.88;102968.28;6251966;28;20231;-70
2023/02/11 15:09:34;;;;;;;1.97;1.67;;;;;;;12.25;89.84;102979.47;6243034;28;20504;-70
2023/02/11 15:12:55;;;;;;;3.67;1.73;;;;;;;11.94;91.16;102988.63;6241937;28;20304;-70
2023/02/11 15:16:21;;;;;;;3.13;1.60;;;;;;;11.51;91.64;102986.72;6256827;28;20425;-69
2023/02/11 15:19:47;;;;;;;3.77;2.03;;;;;;;11.31;92.70;102994.22;6231895;28;20228;-70
2023/02/11 15:23:18;;;;;;;1.87;1.57;;;;;;;11.48;91.42;102988.72;6230413;28;20233;-70
2023/02/11 15:26:39;;;;;;;2.03;1.60;;;;;;;11.39;91.54;102983.88;6252354;28;20239;-70
2023/02/11 15:30:00;;;;;;;6.13;3.03;;;;;;;11.44;91.32;102984.44;6245795;28;20224;-70
2023/02/11 15:33:24;;;;;;;2.40;1.83;;;;;;;11.20;92.25;102982.22;6234879;28;20228;-70
2023/02/11 15:36:45;;;;;;;3.20;2.33;;;;;;;11.18;92.16;102986.00;6250123;28;20228;-69
2023/02/11 15:40:12;;;;;;;6.03;2.20;;;;;;;11.52;90.57;102985.75;6244858;28;20268;-70
2023/02/11 15:43:43;;;;;;;4.27;2.47;;;;;;;11.17;90.94;102985.13;6249687;28;20300;-70
2023/02/11 15:47:09;;;;;;;3.70;3.00;;;;;;;11.16;90.77;102983.34;6248584;28;20255;-69
2023/02/11 15:50:35;;;;;;;10.77;2.43;;;;;;;11.29;90.78;102980.81;6230487;28;20228;-69
2023/02/11 15:53:59;;;;;;;5.37;2.23;;;;;;;11.30;90.59;102989.78;6254420;28;20705;-69
2023/02/11 15:57:22;;;;;;;4.17;2.13;;;;;;;10.90;91.90;102992.09;6248544;28;21216;-69
2023/02/11 16:00:47;;;;;;;7.17;3.70;;;;;;;10.98;91.52;103008.72;6255973;28;20236;-69
2023/02/11 16:04:16;;;;;;;3.70;2.30;;;;;;;11.09;90.87;103014.38;6252085;28;20235;-69
2023/02/11 16:07:44;;;;;;;7.60;3.73;;;;;;;11.22;89.65;103006.44;6245984;28;20223;-69